sensor_id;sensor_type;location;lat;lon;timestamp;P1;durP1;ratioP1;P2;durP2;ratioP2
26588;SDS011;14235;48.532;8.722;2022-07-06T00:01:36;2.25;;;2.05;;
26588;SDS011;14235;48.532;8.722;2022-07-06T00:04:02;2.85;;;1.77;;
26588;SDS011;14235;48.532;8.722;2022-07-06T00:06:29;2.00;;;1.90;;
26588;SDS011;14235;48.532;8.722;2022-07-06T00:08:54;2.00;;;1.90;;
26588;SDS011;14235;48.532;8.722;2022-07-06T00:11:20;2.17;;;1.98;;
26588;SDS011;14235;48.532;8.722;2022-07-06T00:13:46;3.60;;;1.80;;
26588;SDS011;14235;48.532;8.722;2022-07-06T00:16:12;2.47;;;2.10;;
26588;SDS011;14235;48.532;8.722;2022-07-06T00:18:38;2.00;;;1.90;;
26588;SDS011;14235;48.532;8.722;2022-07-06T00:21:03;2.55;;;1.80;;
26588;SDS011;14235;48.532;8.722;2022-07-06T00:23:29;2.90;;;2.00;;
26588;SDS011;14235;48.532;8.722;2022-07-06T00:25:54;1.90;;;1.80;;
26588;SDS011;14235;48.532;8.722;2022-07-06T00:28:20;4.00;;;2.20;;
26588;SDS011;14235;48.532;8.722;2022-07-06T00:30:46;2.40;;;2.13;;
26588;SDS011;14235;48.532;8.722;2022-07-06T00:33:11;2.35;;;1.92;;
26588;SDS011;14235;48.532;8.722;2022-07-06T00:35:37;2.05;;;1.95;;
26588;SDS011;14235;48.532;8.722;2022-07-06T00:38:03;4.10;;;1.90;;
26588;SDS011;14235;48.532;8.722;2022-07-06T00:40:28;2.53;;;1.80;;
26588;SDS011;14235;48.532;8.722;2022-07-06T00:42:57;1.98;;;1.88;;
26588;SDS011;14235;48.532;8.722;2022-07-06T00:45:23;2.40;;;1.70;;
26588;SDS011;14235;48.532;8.722;2022-07-06T00:47:49;2.15;;;1.88;;
26588;SDS011;14235;48.532;8.722;2022-07-06T00:50:15;3.17;;;1.95;;
26588;SDS011;14235;48.532;8.722;2022-07-06T00:52:51;2.10;;;1.88;;
26588;SDS011;14235;48.532;8.722;2022-07-06T00:55:23;2.63;;;1.92;;
26588;SDS011;14235;48.532;8.722;2022-07-06T00:57:53;1.70;;;1.60;;
26588;SDS011;14235;48.532;8.722;2022-07-06T01:00:22;2.70;;;1.90;;
26588;SDS011;14235;48.532;8.722;2022-07-06T01:02:51;2.47;;;2.03;;
26588;SDS011;14235;48.532;8.722;2022-07-06T01:05:17;2.88;;;2.10;;
26588;SDS011;14235;48.532;8.722;2022-07-06T01:07:44;2.88;;;2.17;;
26588;SDS011;14235;48.532;8.722;2022-07-06T01:10:12;2.35;;;2.08;;
26588;SDS011;14235;48.532;8.722;2022-07-06T01:12:41;1.90;;;1.80;;
26588;SDS011;14235;48.532;8.722;2022-07-06T01:15:09;4.40;;;2.45;;
26588;SDS011;14235;48.532;8.722;2022-07-06T01:17:38;2.63;;;2.20;;
26588;SDS011;14235;48.532;8.722;2022-07-06T01:22:40;2.35;;;2.10;;
26588;SDS011;14235;48.532;8.722;2022-07-06T01:25:06;3.03;;;2.00;;
26588;SDS011;14235;48.532;8.722;2022-07-06T01:27:35;2.05;;;1.95;;
26588;SDS011;14235;48.532;8.722;2022-07-06T01:30:06;1.90;;;1.80;;
26588;SDS011;14235;48.532;8.722;2022-07-06T01:32:36;2.10;;;1.80;;
26588;SDS011;14235;48.532;8.722;2022-07-06T01:35:02;2.35;;;2.15;;
26588;SDS011;14235;48.532;8.722;2022-07-06T01:37:32;2.45;;;2.25;;
26588;SDS011;14235;48.532;8.722;2022-07-06T01:39:59;2.10;;;1.90;;
26588;SDS011;14235;48.532;8.722;2022-07-06T01:42:25;3.08;;;2.40;;
26588;SDS011;14235;48.532;8.722;2022-07-06T01:44:51;2.70;;;2.30;;
26588;SDS011;14235;48.532;8.722;2022-07-06T01:47:17;2.00;;;1.90;;
26588;SDS011;14235;48.532;8.722;2022-07-06T01:49:43;2.33;;;2.13;;
26588;SDS011;14235;48.532;8.722;2022-07-06T01:52:08;2.15;;;2.05;;
26588;SDS011;14235;48.532;8.722;2022-07-06T01:54:34;2.55;;;2.40;;
26588;SDS011;14235;48.532;8.722;2022-07-06T01:57:00;2.60;;;2.40;;
26588;SDS011;14235;48.532;8.722;2022-07-06T01:59:25;3.05;;;2.08;;
26588;SDS011;14235;48.532;8.722;2022-07-06T02:01:51;2.83;;;2.35;;
26588;SDS011;14235;48.532;8.722;2022-07-06T02:04:17;2.22;;;2.10;;
26588;SDS011;14235;48.532;8.722;2022-07-06T02:06:42;2.45;;;2.25;;
26588;SDS011;14235;48.532;8.722;2022-07-06T02:09:08;2.22;;;2.13;;
26588;SDS011;14235;48.532;8.722;2022-07-06T02:11:33;2.42;;;2.00;;
26588;SDS011;14235;48.532;8.722;2022-07-06T02:13:59;2.40;;;2.20;;
26588;SDS011;14235;48.532;8.722;2022-07-06T02:16:24;3.25;;;2.10;;
26588;SDS011;14235;48.532;8.722;2022-07-06T02:18:50;2.55;;;2.35;;
26588;SDS011;14235;48.532;8.722;2022-07-06T02:21:16;2.10;;;2.00;;
26588;SDS011;14235;48.532;8.722;2022-07-06T02:23:42;2.17;;;2.00;;
26588;SDS011;14235;48.532;8.722;2022-07-06T02:26:07;2.03;;;1.92;;
26588;SDS011;14235;48.532;8.722;2022-07-06T02:28:33;2.60;;;2.28;;
26588;SDS011;14235;48.532;8.722;2022-07-06T02:30:59;2.83;;;2.22;;
26588;SDS011;14235;48.532;8.722;2022-07-06T02:33:24;3.20;;;2.40;;
26588;SDS011;14235;48.532;8.722;2022-07-06T02:35:50;2.40;;;2.22;;
26588;SDS011;14235;48.532;8.722;2022-07-06T02:38:15;2.05;;;2.00;;
26588;SDS011;14235;48.532;8.722;2022-07-06T02:40:41;3.00;;;2.28;;
26588;SDS011;14235;48.532;8.722;2022-07-06T02:43:07;2.42;;;2.17;;
26588;SDS011;14235;48.532;8.722;2022-07-06T02:45:32;2.47;;;2.35;;
26588;SDS011;14235;48.532;8.722;2022-07-06T02:47:58;2.63;;;2.33;;
26588;SDS011;14235;48.532;8.722;2022-07-06T02:50:24;3.13;;;2.40;;
26588;SDS011;14235;48.532;8.722;2022-07-06T02:52:50;4.03;;;2.47;;
26588;SDS011;14235;48.532;8.722;2022-07-06T02:55:16;2.78;;;2.55;;
26588;SDS011;14235;48.532;8.722;2022-07-06T02:57:41;3.28;;;2.50;;
26588;SDS011;14235;48.532;8.722;2022-07-06T03:00:07;3.33;;;2.63;;
26588;SDS011;14235;48.532;8.722;2022-07-06T03:02:34;2.47;;;2.33;;
26588;SDS011;14235;48.532;8.722;2022-07-06T03:05:00;2.83;;;2.30;;
26588;SDS011;14235;48.532;8.722;2022-07-06T03:07:26;2.60;;;2.40;;
26588;SDS011;14235;48.532;8.722;2022-07-06T03:09:51;2.60;;;2.40;;
26588;SDS011;14235;48.532;8.722;2022-07-06T03:12:17;2.58;;;2.42;;
26588;SDS011;14235;48.532;8.722;2022-07-06T03:14:43;2.63;;;2.42;;
26588;SDS011;14235;48.532;8.722;2022-07-06T03:17:08;2.70;;;2.47;;
26588;SDS011;14235;48.532;8.722;2022-07-06T03:19:34;3.22;;;2.25;;
26588;SDS011;14235;48.532;8.722;2022-07-06T03:22:00;3.05;;;2.60;;
26588;SDS011;14235;48.532;8.722;2022-07-06T03:24:25;3.05;;;2.55;;
26588;SDS011;14235;48.532;8.722;2022-07-06T03:26:51;2.88;;;2.67;;
26588;SDS011;14235;48.532;8.722;2022-07-06T03:29:17;2.95;;;2.65;;
26588;SDS011;14235;48.532;8.722;2022-07-06T03:31:42;2.80;;;2.60;;
26588;SDS011;14235;48.532;8.722;2022-07-06T03:34:08;2.40;;;2.30;;
26588;SDS011;14235;48.532;8.722;2022-07-06T03:36:33;2.65;;;2.45;;
26588;SDS011;14235;48.532;8.722;2022-07-06T03:38:59;2.65;;;2.45;;
26588;SDS011;14235;48.532;8.722;2022-07-06T03:41:24;2.67;;;2.45;;
26588;SDS011;14235;48.532;8.722;2022-07-06T03:43:50;2.72;;;2.53;;
26588;SDS011;14235;48.532;8.722;2022-07-06T03:46:15;2.97;;;2.78;;
26588;SDS011;14235;48.532;8.722;2022-07-06T03:48:41;3.42;;;2.63;;
26588;SDS011;14235;48.532;8.722;2022-07-06T03:51:07;2.70;;;2.50;;
26588;SDS011;14235;48.532;8.722;2022-07-06T03:53:32;2.40;;;2.30;;
26588;SDS011;14235;48.532;8.722;2022-07-06T03:55:58;2.80;;;2.60;;
26588;SDS011;14235;48.532;8.722;2022-07-06T03:58:42;3.83;;;2.72;;
26588;SDS011;14235;48.532;8.722;2022-07-06T04:01:08;2.58;;;2.30;;
26588;SDS011;14235;48.532;8.722;2022-07-06T04:03:34;2.78;;;2.58;;
26588;SDS011;14235;48.532;8.722;2022-07-06T04:05:59;2.90;;;2.70;;
26588;SDS011;14235;48.532;8.722;2022-07-06T04:08:25;2.97;;;2.83;;
26588;SDS011;14235;48.532;8.722;2022-07-06T04:10:50;2.88;;;2.67;;
26588;SDS011;14235;48.532;8.722;2022-07-06T04:13:16;3.03;;;2.83;;
26588;SDS011;14235;48.532;8.722;2022-07-06T04:15:41;3.13;;;2.67;;
26588;SDS011;14235;48.532;8.722;2022-07-06T04:18:07;3.25;;;2.95;;
26588;SDS011;14235;48.532;8.722;2022-07-06T04:20:33;2.80;;;2.60;;
26588;SDS011;14235;48.532;8.722;2022-07-06T04:22:58;3.05;;;2.75;;
26588;SDS011;14235;48.532;8.722;2022-07-06T04:25:24;2.85;;;2.70;;
26588;SDS011;14235;48.532;8.722;2022-07-06T04:27:50;3.80;;;2.65;;
26588;SDS011;14235;48.532;8.722;2022-07-06T04:30:15;2.80;;;2.60;;
26588;SDS011;14235;48.532;8.722;2022-07-06T04:32:41;3.17;;;2.97;;
26588;SDS011;14235;48.532;8.722;2022-07-06T04:35:07;2.42;;;2.33;;
26588;SDS011;14235;48.532;8.722;2022-07-06T04:37:33;3.00;;;2.80;;
26588;SDS011;14235;48.532;8.722;2022-07-06T04:39:58;2.90;;;2.70;;
26588;SDS011;14235;48.532;8.722;2022-07-06T04:42:24;3.13;;;2.92;;
26588;SDS011;14235;48.532;8.722;2022-07-06T04:44:50;2.85;;;2.63;;
26588;SDS011;14235;48.532;8.722;2022-07-06T04:47:18;2.75;;;2.55;;
26588;SDS011;14235;48.532;8.722;2022-07-06T04:49:44;2.97;;;2.75;;
26588;SDS011;14235;48.532;8.722;2022-07-06T04:52:09;3.15;;;2.88;;
26588;SDS011;14235;48.532;8.722;2022-07-06T04:54:35;4.22;;;2.80;;
26588;SDS011;14235;48.532;8.722;2022-07-06T04:57:01;3.15;;;2.53;;
26588;SDS011;14235;48.532;8.722;2022-07-06T04:59:26;2.88;;;2.67;;
26588;SDS011;14235;48.532;8.722;2022-07-06T05:01:52;3.22;;;2.80;;
26588;SDS011;14235;48.532;8.722;2022-07-06T05:04:18;5.05;;;3.03;;
26588;SDS011;14235;48.532;8.722;2022-07-06T05:06:44;4.00;;;2.90;;
26588;SDS011;14235;48.532;8.722;2022-07-06T05:09:11;3.20;;;2.90;;
26588;SDS011;14235;48.532;8.722;2022-07-06T05:11:37;5.07;;;2.88;;
26588;SDS011;14235;48.532;8.722;2022-07-06T05:14:03;3.53;;;2.85;;
26588;SDS011;14235;48.532;8.722;2022-07-06T05:16:29;3.03;;;2.83;;
26588;SDS011;14235;48.532;8.722;2022-07-06T05:18:55;3.20;;;3.00;;
26588;SDS011;14235;48.532;8.722;2022-07-06T05:21:21;2.85;;;2.70;;
26588;SDS011;14235;48.532;8.722;2022-07-06T05:23:46;2.78;;;2.58;;
26588;SDS011;14235;48.532;8.722;2022-07-06T05:26:12;3.20;;;3.00;;
26588;SDS011;14235;48.532;8.722;2022-07-06T05:28:38;3.10;;;2.75;;
26588;SDS011;14235;48.532;8.722;2022-07-06T05:31:03;4.45;;;3.10;;
26588;SDS011;14235;48.532;8.722;2022-07-06T05:33:29;4.05;;;3.40;;
26588;SDS011;14235;48.532;8.722;2022-07-06T05:35:54;3.22;;;2.92;;
26588;SDS011;14235;48.532;8.722;2022-07-06T05:38:20;3.83;;;3.08;;
26588;SDS011;14235;48.532;8.722;2022-07-06T05:40:46;8.02;;;3.30;;
26588;SDS011;14235;48.532;8.722;2022-07-06T05:43:11;3.67;;;3.30;;
26588;SDS011;14235;48.532;8.722;2022-07-06T05:45:37;3.40;;;3.10;;
26588;SDS011;14235;48.532;8.722;2022-07-06T05:48:03;3.58;;;3.25;;
26588;SDS011;14235;48.532;8.722;2022-07-06T05:50:47;4.38;;;3.00;;
26588;SDS011;14235;48.532;8.722;2022-07-06T05:53:13;3.28;;;2.97;;
26588;SDS011;14235;48.532;8.722;2022-07-06T05:55:39;3.50;;;3.00;;
26588;SDS011;14235;48.532;8.722;2022-07-06T05:58:04;4.35;;;3.17;;
26588;SDS011;14235;48.532;8.722;2022-07-06T06:00:30;8.18;;;4.10;;
26588;SDS011;14235;48.532;8.722;2022-07-06T06:02:56;4.80;;;3.47;;
26588;SDS011;14235;48.532;8.722;2022-07-06T06:05:23;3.63;;;3.42;;
26588;SDS011;14235;48.532;8.722;2022-07-06T06:07:48;3.90;;;3.55;;
26588;SDS011;14235;48.532;8.722;2022-07-06T06:10:17;4.75;;;3.10;;
26588;SDS011;14235;48.532;8.722;2022-07-06T06:12:43;3.35;;;3.15;;
26588;SDS011;14235;48.532;8.722;2022-07-06T06:15:10;4.32;;;3.42;;
26588;SDS011;14235;48.532;8.722;2022-07-06T06:17:37;4.03;;;3.72;;
26588;SDS011;14235;48.532;8.722;2022-07-06T06:20:04;3.85;;;3.55;;
26588;SDS011;14235;48.532;8.722;2022-07-06T06:22:31;5.20;;;3.65;;
26588;SDS011;14235;48.532;8.722;2022-07-06T06:25:17;5.20;;;3.78;;
26588;SDS011;14235;48.532;8.722;2022-07-06T06:27:45;5.25;;;3.60;;
26588;SDS011;14235;48.532;8.722;2022-07-06T06:30:11;4.00;;;3.60;;
26588;SDS011;14235;48.532;8.722;2022-07-06T06:32:37;4.40;;;3.35;;
26588;SDS011;14235;48.532;8.722;2022-07-06T06:35:03;7.07;;;4.05;;
26588;SDS011;14235;48.532;8.722;2022-07-06T06:37:30;3.45;;;3.15;;
26588;SDS011;14235;48.532;8.722;2022-07-06T06:39:55;5.43;;;3.85;;
26588;SDS011;14235;48.532;8.722;2022-07-06T06:42:21;4.35;;;3.50;;
26588;SDS011;14235;48.532;8.722;2022-07-06T06:44:46;6.18;;;3.88;;
26588;SDS011;14235;48.532;8.722;2022-07-06T06:47:12;4.03;;;3.63;;
26588;SDS011;14235;48.532;8.722;2022-07-06T06:49:38;3.13;;;2.92;;
26588;SDS011;14235;48.532;8.722;2022-07-06T06:52:03;3.63;;;3.13;;
26588;SDS011;14235;48.532;8.722;2022-07-06T06:54:29;4.20;;;3.30;;
26588;SDS011;14235;48.532;8.722;2022-07-06T06:56:54;3.92;;;3.40;;
26588;SDS011;14235;48.532;8.722;2022-07-06T06:59:20;3.75;;;3.17;;
26588;SDS011;14235;48.532;8.722;2022-07-06T07:01:45;4.53;;;3.28;;
26588;SDS011;14235;48.532;8.722;2022-07-06T07:04:11;5.00;;;3.28;;
26588;SDS011;14235;48.532;8.722;2022-07-06T07:06:37;3.65;;;3.17;;
26588;SDS011;14235;48.532;8.722;2022-07-06T07:09:02;3.03;;;2.72;;
26588;SDS011;14235;48.532;8.722;2022-07-06T07:11:28;3.30;;;3.00;;
26588;SDS011;14235;48.532;8.722;2022-07-06T07:13:54;5.25;;;3.28;;
26588;SDS011;14235;48.532;8.722;2022-07-06T07:16:19;4.68;;;2.95;;
26588;SDS011;14235;48.532;8.722;2022-07-06T07:18:45;3.83;;;3.08;;
26588;SDS011;14235;48.532;8.722;2022-07-06T07:21:11;4.55;;;4.03;;
26588;SDS011;14235;48.532;8.722;2022-07-06T07:23:36;6.18;;;4.47;;
26588;SDS011;14235;48.532;8.722;2022-07-06T07:26:02;4.68;;;3.20;;
26588;SDS011;14235;48.532;8.722;2022-07-06T07:28:28;4.90;;;3.08;;
26588;SDS011;14235;48.532;8.722;2022-07-06T07:30:53;3.60;;;3.30;;
26588;SDS011;14235;48.532;8.722;2022-07-06T07:33:19;2.75;;;2.55;;
26588;SDS011;14235;48.532;8.722;2022-07-06T07:35:44;4.68;;;3.00;;
26588;SDS011;14235;48.532;8.722;2022-07-06T07:38:10;4.65;;;2.65;;
26588;SDS011;14235;48.532;8.722;2022-07-06T07:40:35;4.07;;;2.90;;
26588;SDS011;14235;48.532;8.722;2022-07-06T07:43:01;4.28;;;2.92;;
26588;SDS011;14235;48.532;8.722;2022-07-06T07:45:26;4.35;;;3.03;;
26588;SDS011;14235;48.532;8.722;2022-07-06T07:47:52;3.08;;;2.80;;
26588;SDS011;14235;48.532;8.722;2022-07-06T07:50:18;3.20;;;2.95;;
26588;SDS011;14235;48.532;8.722;2022-07-06T07:52:43;4.07;;;2.83;;
26588;SDS011;14235;48.532;8.722;2022-07-06T07:55:09;3.00;;;2.70;;
26588;SDS011;14235;48.532;8.722;2022-07-06T07:57:35;2.70;;;2.50;;
26588;SDS011;14235;48.532;8.722;2022-07-06T08:00:01;4.85;;;3.00;;
26588;SDS011;14235;48.532;8.722;2022-07-06T08:02:28;3.35;;;3.05;;
26588;SDS011;14235;48.532;8.722;2022-07-06T08:04:53;3.10;;;2.70;;
26588;SDS011;14235;48.532;8.722;2022-07-06T08:07:19;3.35;;;3.03;;
26588;SDS011;14235;48.532;8.722;2022-07-06T08:09:44;2.50;;;2.30;;
26588;SDS011;14235;48.532;8.722;2022-07-06T08:12:10;2.95;;;2.47;;
26588;SDS011;14235;48.532;8.722;2022-07-06T08:14:36;5.75;;;2.92;;
26588;SDS011;14235;48.532;8.722;2022-07-06T08:17:02;4.95;;;2.80;;
26588;SDS011;14235;48.532;8.722;2022-07-06T08:19:28;2.95;;;2.75;;
26588;SDS011;14235;48.532;8.722;2022-07-06T08:21:55;2.70;;;2.50;;
26588;SDS011;14235;48.532;8.722;2022-07-06T08:24:21;2.92;;;2.40;;
26588;SDS011;14235;48.532;8.722;2022-07-06T08:26:46;3.22;;;2.30;;
26588;SDS011;14235;48.532;8.722;2022-07-06T08:29:12;2.78;;;2.35;;
26588;SDS011;14235;48.532;8.722;2022-07-06T08:31:38;2.63;;;2.42;;
26588;SDS011;14235;48.532;8.722;2022-07-06T08:34:03;2.78;;;2.60;;
26588;SDS011;14235;48.532;8.722;2022-07-06T08:36:29;2.50;;;2.33;;
26588;SDS011;14235;48.532;8.722;2022-07-06T08:38:55;2.45;;;2.25;;
26588;SDS011;14235;48.532;8.722;2022-07-06T08:41:21;4.18;;;2.65;;
26588;SDS011;14235;48.532;8.722;2022-07-06T08:43:50;4.40;;;2.47;;
26588;SDS011;14235;48.532;8.722;2022-07-06T08:46:16;3.67;;;2.30;;
26588;SDS011;14235;48.532;8.722;2022-07-06T08:48:43;3.38;;;2.55;;
26588;SDS011;14235;48.532;8.722;2022-07-06T08:51:11;3.78;;;2.78;;
26588;SDS011;14235;48.532;8.722;2022-07-06T08:53:39;5.53;;;2.35;;
26588;SDS011;14235;48.532;8.722;2022-07-06T08:56:06;2.10;;;2.00;;
26588;SDS011;14235;48.532;8.722;2022-07-06T08:58:32;3.30;;;2.35;;
26588;SDS011;14235;48.532;8.722;2022-07-06T09:00:59;2.47;;;2.03;;
26588;SDS011;14235;48.532;8.722;2022-07-06T09:03:26;2.25;;;2.15;;
26588;SDS011;14235;48.532;8.722;2022-07-06T09:05:52;3.50;;;1.98;;
26588;SDS011;14235;48.532;8.722;2022-07-06T09:08:23;5.25;;;2.60;;
26588;SDS011;14235;48.532;8.722;2022-07-06T09:10:51;5.30;;;2.45;;
26588;SDS011;14235;48.532;8.722;2022-07-06T09:13:17;2.83;;;1.85;;
26588;SDS011;14235;48.532;8.722;2022-07-06T09:15:43;3.22;;;2.35;;
26588;SDS011;14235;48.532;8.722;2022-07-06T09:18:08;2.58;;;2.30;;
26588;SDS011;14235;48.532;8.722;2022-07-06T09:20:34;2.45;;;2.30;;
26588;SDS011;14235;48.532;8.722;2022-07-06T09:23:00;2.72;;;2.53;;
26588;SDS011;14235;48.532;8.722;2022-07-06T09:25:28;2.38;;;2.20;;
26588;SDS011;14235;48.532;8.722;2022-07-06T09:27:56;6.10;;;2.22;;
26588;SDS011;14235;48.532;8.722;2022-07-06T09:30:24;3.45;;;2.08;;
26588;SDS011;14235;48.532;8.722;2022-07-06T09:32:51;2.58;;;2.28;;
26588;SDS011;14235;48.532;8.722;2022-07-06T09:35:35;2.60;;;2.20;;
26588;SDS011;14235;48.532;8.722;2022-07-06T09:38:03;2.88;;;2.22;;
26588;SDS011;14235;48.532;8.722;2022-07-06T09:40:47;3.13;;;2.17;;
26588;SDS011;14235;48.532;8.722;2022-07-06T09:43:17;2.15;;;1.95;;
26588;SDS011;14235;48.532;8.722;2022-07-06T09:45:48;2.72;;;2.53;;
26588;SDS011;14235;48.532;8.722;2022-07-06T09:48:16;2.28;;;2.05;;
26588;SDS011;14235;48.532;8.722;2022-07-06T09:50:46;3.83;;;2.17;;
26588;SDS011;14235;48.532;8.722;2022-07-06T09:53:13;2.42;;;1.90;;
26588;SDS011;14235;48.532;8.722;2022-07-06T09:55:47;5.43;;;2.08;;
26588;SDS011;14235;48.532;8.722;2022-07-06T09:58:15;4.35;;;2.85;;
26588;SDS011;14235;48.532;8.722;2022-07-06T10:00:41;5.30;;;2.25;;
26588;SDS011;14235;48.532;8.722;2022-07-06T10:03:08;2.47;;;2.20;;
26588;SDS011;14235;48.532;8.722;2022-07-06T10:05:36;2.75;;;2.17;;
26588;SDS011;14235;48.532;8.722;2022-07-06T10:08:02;2.70;;;2.17;;
26588;SDS011;14235;48.532;8.722;2022-07-06T10:10:31;3.72;;;2.50;;
26588;SDS011;14235;48.532;8.722;2022-07-06T10:12:57;5.10;;;2.25;;
26588;SDS011;14235;48.532;8.722;2022-07-06T10:15:25;2.25;;;1.92;;
26588;SDS011;14235;48.532;8.722;2022-07-06T10:17:52;2.83;;;2.20;;
26588;SDS011;14235;48.532;8.722;2022-07-06T10:20:18;2.67;;;2.05;;
26588;SDS011;14235;48.532;8.722;2022-07-06T10:22:46;2.22;;;2.13;;
26588;SDS011;14235;48.532;8.722;2022-07-06T10:25:13;3.75;;;2.30;;
26588;SDS011;14235;48.532;8.722;2022-07-06T10:27:43;4.72;;;2.50;;
26588;SDS011;14235;48.532;8.722;2022-07-06T10:30:10;3.17;;;2.42;;
26588;SDS011;14235;48.532;8.722;2022-07-06T10:32:37;3.05;;;2.20;;
26588;SDS011;14235;48.532;8.722;2022-07-06T10:35:04;2.63;;;2.28;;
26588;SDS011;14235;48.532;8.722;2022-07-06T10:37:30;3.10;;;1.90;;
26588;SDS011;14235;48.532;8.722;2022-07-06T10:39:57;3.28;;;2.50;;
26588;SDS011;14235;48.532;8.722;2022-07-06T10:42:46;2.28;;;2.17;;
26588;SDS011;14235;48.532;8.722;2022-07-06T10:45:20;2.58;;;2.30;;
26588;SDS011;14235;48.532;8.722;2022-07-06T10:50:36;3.10;;;2.35;;
26588;SDS011;14235;48.532;8.722;2022-07-06T10:53:12;4.25;;;2.35;;
26588;SDS011;14235;48.532;8.722;2022-07-06T10:55:39;3.28;;;2.22;;
26588;SDS011;14235;48.532;8.722;2022-07-06T10:58:07;3.83;;;2.45;;
26588;SDS011;14235;48.532;8.722;2022-07-06T11:00:52;2.50;;;2.30;;
26588;SDS011;14235;48.532;8.722;2022-07-06T11:06:16;2.70;;;2.50;;
26588;SDS011;14235;48.532;8.722;2022-07-06T11:08:46;3.40;;;2.72;;
26588;SDS011;14235;48.532;8.722;2022-07-06T11:11:19;6.90;;;3.08;;
26588;SDS011;14235;48.532;8.722;2022-07-06T11:16:58;3.75;;;2.97;;
26588;SDS011;14235;48.532;8.722;2022-07-06T11:19:29;3.72;;;3.33;;
26588;SDS011;14235;48.532;8.722;2022-07-06T11:22:05;3.55;;;3.10;;
26588;SDS011;14235;48.532;8.722;2022-07-06T11:24:36;2.75;;;2.55;;
26588;SDS011;14235;48.532;8.722;2022-07-06T11:27:03;4.07;;;2.95;;
26588;SDS011;14235;48.532;8.722;2022-07-06T11:29:30;3.28;;;2.78;;
26588;SDS011;14235;48.532;8.722;2022-07-06T11:31:57;5.57;;;2.85;;
26588;SDS011;14235;48.532;8.722;2022-07-06T11:34:29;2.70;;;2.50;;
26588;SDS011;14235;48.532;8.722;2022-07-06T11:37:06;4.05;;;2.58;;
26588;SDS011;14235;48.532;8.722;2022-07-06T11:39:37;3.97;;;2.50;;
26588;SDS011;14235;48.532;8.722;2022-07-06T11:42:05;3.65;;;2.50;;
26588;SDS011;14235;48.532;8.722;2022-07-06T11:44:32;2.92;;;2.33;;
26588;SDS011;14235;48.532;8.722;2022-07-06T11:46:59;4.10;;;3.05;;
26588;SDS011;14235;48.532;8.722;2022-07-06T11:49:28;3.97;;;2.90;;
26588;SDS011;14235;48.532;8.722;2022-07-06T11:51:59;4.93;;;2.58;;
26588;SDS011;14235;48.532;8.722;2022-07-06T11:54:25;2.65;;;2.45;;
26588;SDS011;14235;48.532;8.722;2022-07-06T11:56:52;2.72;;;2.47;;
26588;SDS011;14235;48.532;8.722;2022-07-06T11:59:37;4.30;;;2.60;;
26588;SDS011;14235;48.532;8.722;2022-07-06T12:02:05;4.88;;;2.80;;
26588;SDS011;14235;48.532;8.722;2022-07-06T12:04:54;4.93;;;2.70;;
26588;SDS011;14235;48.532;8.722;2022-07-06T12:07:19;3.10;;;2.55;;
26588;SDS011;14235;48.532;8.722;2022-07-06T12:09:45;2.70;;;2.50;;
26588;SDS011;14235;48.532;8.722;2022-07-06T12:12:13;3.13;;;2.50;;
26588;SDS011;14235;48.532;8.722;2022-07-06T12:14:39;3.10;;;2.75;;
26588;SDS011;14235;48.532;8.722;2022-07-06T12:17:09;2.90;;;2.50;;
26588;SDS011;14235;48.532;8.722;2022-07-06T12:19:36;4.43;;;2.60;;
26588;SDS011;14235;48.532;8.722;2022-07-06T12:22:03;4.78;;;2.63;;
26588;SDS011;14235;48.532;8.722;2022-07-06T12:24:30;3.38;;;3.05;;
26588;SDS011;14235;48.532;8.722;2022-07-06T12:26:57;3.88;;;2.83;;
26588;SDS011;14235;48.532;8.722;2022-07-06T12:29:34;4.15;;;2.95;;
26588;SDS011;14235;48.532;8.722;2022-07-06T12:31:59;2.88;;;2.45;;
26588;SDS011;14235;48.532;8.722;2022-07-06T12:34:26;3.90;;;2.50;;
26588;SDS011;14235;48.532;8.722;2022-07-06T12:36:54;2.60;;;2.40;;
26588;SDS011;14235;48.532;8.722;2022-07-06T12:39:24;3.33;;;2.63;;
26588;SDS011;14235;48.532;8.722;2022-07-06T12:41:55;2.75;;;2.50;;
26588;SDS011;14235;48.532;8.722;2022-07-06T12:44:25;4.43;;;2.63;;
26588;SDS011;14235;48.532;8.722;2022-07-06T12:47:12;3.97;;;2.50;;
26588;SDS011;14235;48.532;8.722;2022-07-06T12:49:38;2.63;;;2.30;;
26588;SDS011;14235;48.532;8.722;2022-07-06T12:54:44;7.28;;;2.90;;
26588;SDS011;14235;48.532;8.722;2022-07-06T12:57:17;2.72;;;2.40;;
26588;SDS011;14235;48.532;8.722;2022-07-06T12:59:54;4.70;;;2.70;;
26588;SDS011;14235;48.532;8.722;2022-07-06T13:02:25;5.25;;;3.10;;
26588;SDS011;14235;48.532;8.722;2022-07-06T13:04:59;4.07;;;2.40;;
26588;SDS011;14235;48.532;8.722;2022-07-06T13:07:25;3.25;;;2.20;;
26588;SDS011;14235;48.532;8.722;2022-07-06T13:09:52;2.70;;;2.50;;
26588;SDS011;14235;48.532;8.722;2022-07-06T13:12:19;6.25;;;3.13;;
26588;SDS011;14235;48.532;8.722;2022-07-06T13:14:45;4.35;;;3.28;;
26588;SDS011;14235;48.532;8.722;2022-07-06T13:17:11;2.90;;;2.60;;
26588;SDS011;14235;48.532;8.722;2022-07-06T13:19:37;4.22;;;2.90;;
26588;SDS011;14235;48.532;8.722;2022-07-06T13:22:03;2.95;;;2.28;;
26588;SDS011;14235;48.532;8.722;2022-07-06T13:24:28;3.88;;;2.75;;
26588;SDS011;14235;48.532;8.722;2022-07-06T13:26:55;3.40;;;2.58;;
26588;SDS011;14235;48.532;8.722;2022-07-06T13:29:21;3.30;;;2.60;;
26588;SDS011;14235;48.532;8.722;2022-07-06T13:31:47;4.07;;;2.20;;
26588;SDS011;14235;48.532;8.722;2022-07-06T13:34:12;5.50;;;2.58;;
26588;SDS011;14235;48.532;8.722;2022-07-06T13:36:41;3.70;;;2.78;;
26588;SDS011;14235;48.532;8.722;2022-07-06T13:39:07;4.45;;;2.83;;
26588;SDS011;14235;48.532;8.722;2022-07-06T13:41:33;2.75;;;2.55;;
26588;SDS011;14235;48.532;8.722;2022-07-06T13:43:59;3.42;;;2.20;;
26588;SDS011;14235;48.532;8.722;2022-07-06T13:46:25;3.13;;;2.20;;
26588;SDS011;14235;48.532;8.722;2022-07-06T13:48:52;3.58;;;2.20;;
26588;SDS011;14235;48.532;8.722;2022-07-06T13:51:17;3.08;;;2.33;;
26588;SDS011;14235;48.532;8.722;2022-07-06T13:53:43;3.83;;;2.20;;
26588;SDS011;14235;48.532;8.722;2022-07-06T13:56:09;5.00;;;2.10;;
26588;SDS011;14235;48.532;8.722;2022-07-06T13:58:35;3.42;;;2.20;;
26588;SDS011;14235;48.532;8.722;2022-07-06T14:01:01;2.42;;;2.20;;
26588;SDS011;14235;48.532;8.722;2022-07-06T14:03:27;2.33;;;2.10;;
26588;SDS011;14235;48.532;8.722;2022-07-06T14:05:54;3.88;;;2.20;;
26588;SDS011;14235;48.532;8.722;2022-07-06T14:08:21;2.30;;;2.10;;
26588;SDS011;14235;48.532;8.722;2022-07-06T14:10:47;2.97;;;2.25;;
26588;SDS011;14235;48.532;8.722;2022-07-06T14:13:13;2.78;;;2.45;;
26588;SDS011;14235;48.532;8.722;2022-07-06T14:15:38;3.00;;;2.05;;
26588;SDS011;14235;48.532;8.722;2022-07-06T14:18:04;1.92;;;1.83;;
26588;SDS011;14235;48.532;8.722;2022-07-06T14:20:29;2.60;;;1.80;;
26588;SDS011;14235;48.532;8.722;2022-07-06T14:22:55;3.53;;;2.10;;
26588;SDS011;14235;48.532;8.722;2022-07-06T14:25:21;1.83;;;1.73;;
26588;SDS011;14235;48.532;8.722;2022-07-06T14:27:46;3.70;;;2.05;;
26588;SDS011;14235;48.532;8.722;2022-07-06T14:30:12;2.30;;;2.10;;
26588;SDS011;14235;48.532;8.722;2022-07-06T14:32:38;2.60;;;2.13;;
26588;SDS011;14235;48.532;8.722;2022-07-06T14:35:03;2.05;;;1.92;;
26588;SDS011;14235;48.532;8.722;2022-07-06T14:37:29;3.10;;;2.20;;
26588;SDS011;14235;48.532;8.722;2022-07-06T14:39:55;2.58;;;1.70;;
26588;SDS011;14235;48.532;8.722;2022-07-06T14:42:20;1.80;;;1.65;;
26588;SDS011;14235;48.532;8.722;2022-07-06T14:44:46;1.85;;;1.75;;
26588;SDS011;14235;48.532;8.722;2022-07-06T14:47:12;2.42;;;1.88;;
26588;SDS011;14235;48.532;8.722;2022-07-06T14:49:37;3.80;;;1.80;;
26588;SDS011;14235;48.532;8.722;2022-07-06T14:52:03;2.45;;;1.63;;
26588;SDS011;14235;48.532;8.722;2022-07-06T14:54:29;2.08;;;1.77;;
26588;SDS011;14235;48.532;8.722;2022-07-06T14:56:54;2.78;;;1.90;;
26588;SDS011;14235;48.532;8.722;2022-07-06T14:59:20;3.80;;;1.70;;
26588;SDS011;14235;48.532;8.722;2022-07-06T15:01:45;1.88;;;1.77;;